• Join FlightAware (Why Join?)
  • Login
  • US Flag 
09:49AM EST


 

Airport Tracker/Info


-or-


 

Live Flight TrackerFlight Track Log ✈ N7386R ✈ 05-Jul-2013 ✈ 25M - 06AR

Flight Track Log - Related Links

Times and Time Zones

All times are in EDT time to prevent confusion due to time zone crossing. See the N7386R flight status page for this flight to view local times or setup timezone preferences in your user account.

Time Position Orientation Groundspeed Altitude Reporting Facility
EDT Latitude Longitude Course Direction KTS MPH feet Rate Location/Type
11:59AM 34.7317 -89.0861 279° West 157 181 2,800  Level Memphis Center
12:00PM 34.7425 -89.1289 287° West 133 153 3,600 720 Climbing Memphis Center
12:01PM 34.7575 -89.1717 293° West 133 153 4,300 720 Climbing Memphis Center
12:02PM 34.7706 -89.2194 288° West 139 160 5,100 720 Climbing Memphis Center
12:03PM 34.7833 -89.2672 288° West 145 167 5,800 660 Climbing Memphis Center
12:04PM 34.7942 -89.3128 286° West 150 173 6,500 600 Climbing Memphis Center
12:05PM 34.8072 -89.3606 288° West 144 166 7,100 540 Climbing Memphis Center
12:06PM 34.8222 -89.4058 292° West 149 171 7,600 420 Climbing Memphis Center
12:07PM 34.8350 -89.4539 288° West 149 171 8,000 120 Climbing Memphis Center
12:08PM 34.8481 -89.5069 287° West 149 171 7,900  Descending Memphis Center
12:09PM 34.8628 -89.5622 288° West 163 188 8,000  Climbing Memphis Center
12:10PM 34.8778 -89.6156 289° West 168 193 7,900 -60 Descending Memphis Center
12:11PM 34.8947 -89.6708 291° West 168 193 7,900  Level Memphis Center
12:12PM 34.9119 -89.7264 291° West 168 193 7,900  Level Memphis Center
12:13PM 34.9267 -89.7847 287° West 168 193 7,900 60 Level Memphis Center
12:14PM 34.9417 -89.8428 288° West 173 199 8,100 180 Climbing Memphis Center
12:16PM 34.9500 -89.9000 280° West 160 184 8,400 240 Climbing KMEM
12:16PM 34.9667 -89.9500 292° West 159 183 8,700 240 Climbing KMEM
12:17PM 34.9833 -90.0000 292° West 164 189 8,900 240 Climbing KMEM
12:18PM 35.0000 -90.0500 292° West 155 178 9,200 300 Climbing KMEM
12:19PM 35.0000 -90.1000 270° West 151 174 9,500 300 Climbing KMEM
12:20PM 35.0167 -90.1500 292° West 146 168 9,800 180 Climbing KMEM
12:21PM 35.0333 -90.2000 292° West 158 182 9,900  Climbing KMEM
12:22PM 35.0500 -90.2500 292° West 166 191 9,900  Level KMEM
12:23PM 35.0667 -90.3000 292° West 172 198 9,900  Level KMEM
12:24PM 35.0833 -90.3500 292° West 174 200 9,900  Level KMEM
12:25PM 35.1000 -90.4167 287° West 177 204 9,900  Level KMEM
12:26PM 35.1000 -90.4667 270° West 175 201 9,900  Level KMEM
12:28PM 35.1303 -90.5603 292° West 191 220 9,900  Level Memphis Center
12:29PM 35.1447 -90.6111 289° West 191 220 9,900  Level Memphis Center
12:30PM 35.1572 -90.6669 285° West 185 213 9,900  Level Memphis Center
12:31PM 35.1736 -90.7253 289° West 185 213 9,900  Level Memphis Center
12:32PM 35.1881 -90.7814 287° West 180 207 10,000  Climbing Memphis Center
12:33PM 35.2047 -90.8375 290° West 180 207 9,900 -60 Descending Memphis Center
12:34PM 35.2169 -90.8933 285° West 180 207 9,900  Level Memphis Center
12:35PM 35.2333 -90.9494 290° West 180 207 9,900  Level Memphis Center
12:36PM 35.2478 -91.0106 286° West 180 207 9,900  Level Memphis Center
12:37PM 35.2619 -91.0667 287° West 175 201 9,900  Level Memphis Center
12:38PM 35.2764 -91.1175 289° West 175 201 9,900  Level Memphis Center
12:39PM 35.2925 -91.1736 289° West 175 201 9,900 -180 Level Memphis Center
12:40PM 35.3047 -91.2322 284° West 180 207 9,600 -300 Descending Memphis Center
12:41PM 35.3211 -91.2911 289° West 180 207 9,300 -300 Descending Memphis Center
12:42PM 35.3350 -91.3497 286° West 180 207 9,100 -300 Descending Memphis Center
12:43PM 35.3492 -91.4108 286° West 180 207 8,800 -360 Descending Memphis Center
12:44PM 35.3653 -91.4697 289° West 180 207 8,400 -480 Descending Memphis Center
12:45PM 35.3794 -91.5336 285° West 186 214 7,900 -540 Descending Memphis Center
12:46PM 35.3956 -91.5950 288° West 186 214 7,400 -600 Descending Memphis Center
12:47PM 35.4117 -91.6564 288° West 186 214 6,700 -780 Descending Memphis Center
12:48PM 35.4297 -91.7203 289° West 186 214 5,900 -720 Descending Memphis Center
12:49PM 35.4414 -91.7817 283° West 186 214 5,300 -660 Descending Memphis Center
12:50PM 35.4594 -91.8431 290° West 186 214 4,600 -660 Descending Memphis Center
12:51PM 35.4756 -91.9019 289° West 186 214 4,000 -600 Descending Memphis Center